Thunder radar more information blitzortung!


Radar de pluja more information rain snow radar


Visita la nostra xarxa de llocs de meteo:

Template documentation
and downloads

And another site



No particular awareness of the weather is required.    There are no Weather-warnings

Pagina Historial Weather Underground text

Diari Resum Agost 12, 2017 Unitats:  Imperial    Mètric   Tant
« Previous Dia
SegĂźent Dia »
Diari Setmana Mensual Anual Personalitzada
  Maxima: Minima: Media:
Temperatura: TemperatureC °F 16.5 °F 23.9 °F
Punt de rosada: DewpointC °F 9.4 °F 12.4 °F
Humitat: Humidity % 30 % 51 %
Wind Speed: WindSpeedKMH mph 0.0 mph 6.2 mph
RĂ fegues de vent: WindSpeedGustKMH mph - -
Vent:- - SSW
Pression baro: PressurehPa in 1016.8 in -
Precipitacions: 0.0 in    
Historical Graphs
 
 
Dades de taula per Agost 12, 2017
Temps Temperatura Punt de rosada Pression baro Vent Wind Speed RĂ fegues de vent Humitat Rainfall Rate (Hourly)
TemperatureC °F DewpointC °F PressurehPa in Calm     Humidity % HourlyPrecipMM in
00:00 17.7 °F 13.4 °F 1019.9 in Calm     76 % 0.0 in
00:03 20.0 °F 13.0 °F 1020.9 in NE 3.9 mph 3.9 mph 64 % 0.0 in
00:08 19.9 °F 13.1 °F 1020.9 in NE 3.7 mph   65 % 0.0 in
00:10 17.6 °F 13.5 °F 1019.9 in Calm     77 % 0.0 in
00:20 17.5 °F 13.4 °F 1018.8 in Calm     77 % 0.0 in
00:30 17.6 °F 13.5 °F 1018.8 in SSW 1.6 mph 1.6 mph 77 % 0.0 in
00:40 17.4 °F 13.3 °F 1019.9 in South 1.6 mph 3.2 mph 77 % 0.0 in
00:50 17.2 °F 13.3 °F 1019.9 in Calm   3.2 mph 78 % 0.0 in
01:00 17.2 °F 13.3 °F 1019.9 in Calm     78 % 0.0 in
01:10 17.1 °F 13.2 °F 1018.8 in Calm   1.6 mph 78 % 0.0 in
01:20 17.0 °F 13.1 °F 1019.9 in SSW 1.6 mph 3.2 mph 78 % 0.0 in
01:30 16.7 °F 13.1 °F 1019.9 in Calm   4.8 mph 79 % 0.0 in
01:40 16.7 °F 13.2 °F 1019.9 in Calm     80 % 0.0 in
01:50 16.5 °F 13.1 °F 1019.9 in SW 3.2 mph 3.2 mph 80 % 0.0 in
02:00 16.5 °F 13.2 °F 1019.9 in Calm   1.6 mph 81 % 0.0 in
02:10 16.5 °F 13.2 °F 1019.9 in SW 1.6 mph 3.2 mph 81 % 0.0 in
02:20 16.6 °F 13.3 °F 1020.9 in Calm     81 % 0.0 in
02:30 16.9 °F 13.8 °F 1020.9 in Calm   1.6 mph 82 % 0.0 in
02:40 17.1 °F 13.8 °F 1020.9 in Calm   1.6 mph 81 % 0.0 in
02:50 17.3 °F 14.0 °F 1020.9 in Calm     81 % 0.0 in
03:00 18.0 °F 14.5 °F 1020.9 in SE 1.6 mph 3.2 mph 80 % 0.0 in
03:10 18.3 °F 14.4 °F 1020.9 in South 1.6 mph 3.2 mph 78 % 0.0 in
03:20 18.2 °F 14.3 °F 1020.9 in SW 3.2 mph 3.2 mph 78 % 0.0 in
03:30 18.7 °F 14.8 °F 1020.9 in Calm   3.2 mph 78 % 0.0 in
03:40 19.1 °F 14.9 °F 1020.9 in Calm   3.2 mph 77 % 0.0 in
03:50 20.1 °F 15.6 °F 1020.9 in SSW 1.6 mph 1.6 mph 75 % 0.0 in
04:00 20.4 °F 15.4 °F 1020.9 in SSE 3.2 mph 4.8 mph 73 % 0.0 in
04:10 20.6 °F 15.2 °F 1021.9 in SE 3.2 mph 3.2 mph 71 % 0.0 in
04:20 21.2 °F 15.7 °F 1021.9 in SE 1.6 mph 6.4 mph 71 % 0.0 in
04:30 21.4 °F 15.5 °F 1021.9 in SE 1.6 mph 4.8 mph 69 % 0.0 in
04:40 21.7 °F 15.6 °F 1021.9 in ENE 4.8 mph 4.8 mph 68 % 0.0 in
04:50 21.7 °F 15.3 °F 1021.9 in NNE 3.2 mph 4.8 mph 67 % 0.0 in
05:00 21.9 °F 15.5 °F 1021.9 in NNE 3.2 mph 8.0 mph 67 % 0.0 in
05:10 22.6 °F 15.7 °F 1021.9 in NE 1.6 mph 6.4 mph 65 % 0.0 in
05:20 23.1 °F 15.9 °F 1021.9 in NE 1.6 mph 4.8 mph 64 % 0.0 in
05:30 22.7 °F 15.3 °F 1021.9 in NNE 4.8 mph 6.4 mph 63 % 0.0 in
05:40 23.1 °F 15.9 °F 1021.9 in NE 1.6 mph 6.4 mph 64 % 0.0 in
05:50 23.6 °F 16.2 °F 1021.9 in NE 3.2 mph 4.8 mph 63 % 0.0 in
06:00 24.1 °F 15.8 °F 1021.9 in NNE 3.2 mph 4.8 mph 60 % 0.0 in
11:07 23.4 °F 14.9 °F 1020.9 in SE 5.6 mph 5.6 mph 59 % 0.0 in
11:12 24.3 °F 15.8 °F 1020.9 in NNE 5.6 mph 5.6 mph 59 % 0.0 in
11:17 24.2 °F 15.2 °F 1020.9 in NE 5.8 mph 5.8 mph 57 % 0.0 in
11:22 24.4 °F 15.3 °F 1020.9 in NNW 5.6 mph 5.6 mph 57 % 0.0 in
11:27 24.6 °F 15.2 °F 1020.9 in NNE 7.4 mph 7.4 mph 56 % 0.0 in
11:32 24.6 °F 14.9 °F 1020.9 in ESE 9.3 mph 9.3 mph 55 % 0.0 in
11:37 25.1 °F 15.1 °F 1020.9 in ENE 5.6 mph 5.6 mph 54 % 0.0 in
11:42 25.5 °F 14.6 °F 1020.9 in SSW 6.9 mph 6.9 mph 51 % 0.0 in
11:47 25.3 °F 13.2 °F 1020.9 in ESE 7.4 mph 7.4 mph 47 % 0.0 in
11:52 25.6 °F 13.8 °F 1020.9 in South 3.7 mph 3.7 mph 48 % 0.0 in
11:57 26.2 °F 14.3 °F 1020.9 in WSW 5.6 mph 5.6 mph 48 % 0.0 in
12:02 26.6 °F 14.3 °F 1020.9 in SSW 12.6 mph 12.6 mph 47 % 0.0 in
12:07 26.6 °F 14.3 °F 1020.9 in SW 5.6 mph 5.6 mph 47 % 0.0 in
12:12 26.1 °F 13.6 °F 1020.9 in NE 7.4 mph 7.4 mph 46 % 0.0 in
12:17 26.1 °F 13.6 °F 1020.9 in ESE 3.7 mph 3.7 mph 46 % 0.0 in
12:22 26.5 °F 13.9 °F 1020.9 in NNW 3.7 mph 3.7 mph 46 % 0.0 in
12:27 26.9 °F 13.9 °F 1020.9 in West 3.7 mph 3.9 mph 45 % 0.0 in
12:32 27.4 °F 14.1 °F 1019.9 in WSW 9.0 mph 9.0 mph 44 % 0.0 in
12:34 27.2 °F 13.2 °F 1019.9 in WSW 9.3 mph 9.3 mph 42 % 0.0 in
12:39 27.4 °F 13.7 °F 1019.9 in WSW 7.9 mph 7.9 mph 43 % 0.0 in
12:44 27.5 °F 13.4 °F 1019.9 in WSW 9.3 mph 9.3 mph 42 % 0.0 in
12:49 27.2 °F 12.8 °F 1019.9 in West 9.3 mph 9.3 mph 41 % 0.0 in
12:54 27.7 °F 12.9 °F 1019.9 in WSW 3.7 mph 3.7 mph 40 % 0.0 in
12:59 27.1 °F 12.3 °F 1019.9 in WSW 3.7 mph 3.7 mph 40 % 0.0 in
13:04 27.3 °F 12.5 °F 1019.9 in WNW 5.6 mph 5.6 mph 40 % 0.0 in
13:09 28.3 °F 13.4 °F 1019.9 in East 5.6 mph 5.6 mph 40 % 0.0 in
13:14 28.2 °F 13.3 °F 1019.9 in SSE 5.6 mph 5.6 mph 40 % 0.0 in
13:19 28.6 °F 13.3 °F 1019.9 in South 5.6 mph 5.6 mph 39 % 0.0 in
13:24 28.4 °F 13.9 °F 1019.9 in SSE 9.3 mph 9.3 mph 41 % 0.0 in
13:29 27.1 °F 13.1 °F 1018.8 in East 11.1 mph 11.1 mph 42 % 0.0 in
13:34 26.5 °F 13.3 °F 1018.8 in ENE 12.2 mph 12.2 mph 44 % 0.0 in
13:39 26.7 °F 13.4 °F 1018.8 in ESE 14.8 mph 14.8 mph 44 % 0.0 in
13:44 26.5 °F 13.3 °F 1018.8 in ESE 16.7 mph 16.7 mph 44 % 0.0 in
13:49 26.1 °F 12.9 °F 1018.8 in SSE 14.8 mph 14.8 mph 44 % 0.0 in
13:54 26.4 °F 13.5 °F 1018.8 in SE 9.3 mph 9.3 mph 45 % 0.0 in
13:59 26.7 °F 13.8 °F 1019.9 in South 7.4 mph 7.4 mph 45 % 0.0 in
14:04 27.1 °F 13.8 °F 1019.9 in SW 9.3 mph 9.3 mph 44 % 0.0 in
14:09 27.8 °F 14.1 °F 1019.9 in SSW 13.0 mph 13.0 mph 43 % 0.0 in
14:14 27.8 °F 13.7 °F 1019.9 in SSW 9.3 mph 9.3 mph 42 % 0.0 in
14:19 27.7 °F 14.0 °F 1019.9 in WNW 7.4 mph 7.4 mph 43 % 0.0 in
14:24 28.6 °F 14.4 °F 1019.9 in SW 13.0 mph 13.0 mph 42 % 0.0 in
14:29 28.5 °F 14.3 °F 1018.8 in WNW 7.4 mph 7.4 mph 42 % 0.0 in
14:34 28.5 °F 14.3 °F 1018.8 in SW 5.6 mph 5.6 mph 42 % 0.0 in
14:39 29.5 °F 14.5 °F 1018.8 in WSW 9.5 mph 9.5 mph 40 % 0.0 in
14:44 29.2 °F 14.2 °F 1018.8 in NW 5.6 mph 5.6 mph 40 % 0.0 in
14:49 28.6 °F 14.1 °F 1018.8 in West 6.4 mph 6.4 mph 41 % 0.0 in
14:54 29.0 °F 13.7 °F 1018.8 in SSW 5.6 mph 5.6 mph 39 % 0.0 in
14:59 28.1 °F 12.8 °F 1018.8 in ENE 9.3 mph 9.3 mph 39 % 0.0 in
15:04 29.0 °F 12.8 °F 1018.8 in SW 9.3 mph 9.3 mph 37 % 0.0 in
15:09 28.8 °F 12.7 °F 1018.8 in SSW 11.1 mph 11.1 mph 37 % 0.0 in
15:14 28.2 °F 12.1 °F 1018.8 in ESE 5.8 mph 5.8 mph 37 % 0.0 in
15:19 28.1 °F 12.1 °F 1018.8 in South 7.4 mph 7.4 mph 37 % 0.0 in
15:24 29.0 °F 12.8 °F 1018.8 in NW 3.7 mph   37 % 0.0 in
15:29 28.1 °F 12.8 °F 1018.8 in West 9.3 mph 9.3 mph 39 % 0.0 in
15:34 28.5 °F 13.2 °F 1018.8 in SSW 7.4 mph 8.7 mph 39 % 0.0 in
15:39 28.8 °F 12.2 °F 1018.8 in SSE 9.3 mph 9.3 mph 36 % 0.0 in
15:44 29.3 °F 12.3 °F 1018.8 in SSE 5.6 mph 5.6 mph 35 % 0.0 in
15:49 28.8 °F 12.7 °F 1018.8 in WSW 7.4 mph 7.4 mph 37 % 0.0 in
15:54 29.2 °F 11.7 °F 1018.8 in SW 7.4 mph 7.4 mph 34 % 0.0 in
15:55 29.3 °F 12.3 °F 1018.8 in SSE 11.1 mph 11.1 mph 35 % 0.0 in
16:00 29.3 °F 11.8 °F 1017.8 in SW 14.0 mph 14.0 mph 34 % 0.0 in
16:05 29.2 °F 11.3 °F 1017.8 in East 13.0 mph 13.0 mph 33 % 0.0 in
16:10 29.6 °F 11.2 °F 1017.8 in South 13.0 mph 13.0 mph 32 % 0.0 in
16:15 29.6 °F 11.2 °F 1017.8 in West 9.3 mph 9.3 mph 32 % 0.0 in
16:20 29.2 °F 10.3 °F 1017.8 in SW 16.7 mph 16.7 mph 31 % 0.0 in
16:25 29.0 °F 10.2 °F 1017.8 in SW 15.8 mph 15.8 mph 31 % 0.0 in
16:30 29.0 °F 10.2 °F 1017.8 in SW 11.4 mph 11.4 mph 31 % 0.0 in
16:35 29.1 °F 9.8 °F 1017.8 in South 13.0 mph 13.0 mph 30 % 0.0 in
16:40 29.2 °F 10.3 °F 1017.8 in South 13.0 mph 13.0 mph 31 % 0.0 in
16:45 29.0 °F 10.2 °F 1017.8 in SW 13.7 mph 13.7 mph 31 % 0.0 in
16:50 28.7 °F 9.9 °F 1017.8 in West 13.0 mph 13.0 mph 31 % 0.0 in
16:55 29.2 °F 10.3 °F 1017.8 in WSW 13.0 mph 13.0 mph 31 % 0.0 in
17:00 28.9 °F 10.1 °F 1017.8 in WSW 7.4 mph 7.4 mph 31 % 0.0 in
17:05 29.0 °F 10.2 °F 1017.8 in SW 13.0 mph 13.0 mph 31 % 0.0 in
17:10 29.1 °F 10.2 °F 1017.8 in WSW 7.4 mph 7.4 mph 31 % 0.0 in
17:15 28.7 °F 9.9 °F 1017.8 in WSW 9.3 mph 9.3 mph 31 % 0.0 in
17:20 28.2 °F 9.4 °F 1017.8 in SSE 9.3 mph 9.3 mph 31 % 0.0 in
17:25 28.6 °F 10.3 °F 1017.8 in West 7.4 mph 7.4 mph 32 % 0.0 in
17:30 28.6 °F 10.7 °F 1017.8 in SW 13.0 mph 13.0 mph 33 % 0.0 in
17:35 28.3 °F 10.5 °F 1017.8 in SW 9.3 mph 9.3 mph 33 % 0.0 in
17:40 28.4 °F 10.6 °F 1017.8 in West 13.0 mph 13.0 mph 33 % 0.0 in
17:45 28.3 °F 10.9 °F 1017.8 in WSW 9.3 mph 9.3 mph 34 % 0.0 in
17:50 28.2 °F 10.8 °F 1017.8 in SW 11.1 mph 11.1 mph 34 % 0.0 in
17:55 27.9 °F 10.6 °F 1017.8 in SSW 9.3 mph 9.3 mph 34 % 0.0 in
18:00 27.8 °F 10.5 °F 1017.8 in SSW 11.1 mph 11.1 mph 34 % 0.0 in
18:05 27.9 °F 11.0 °F 1017.8 in SSW 11.1 mph 11.1 mph 35 % 0.0 in
18:10 27.8 °F 10.9 °F 1017.8 in SW 14.8 mph 14.8 mph 35 % 0.0 in
18:15 27.9 °F 11.0 °F 1016.8 in SW 9.3 mph 9.3 mph 35 % 0.0 in
18:20 27.7 °F 11.3 °F 1016.8 in SSW 9.3 mph 9.3 mph 36 % 0.0 in
18:25 27.4 °F 10.6 °F 1016.8 in South 13.0 mph 13.0 mph 35 % 0.0 in
18:30 27.5 °F 11.1 °F 1017.8 in SW 9.3 mph 9.3 mph 36 % 0.0 in
18:35 27.6 °F 11.2 °F 1017.8 in SSE 6.1 mph 6.1 mph 36 % 0.0 in
18:40 27.8 °F 11.3 °F 1017.8 in SW 11.4 mph 11.4 mph 36 % 0.0 in
18:45 27.5 °F 11.1 °F 1017.8 in SSW 7.4 mph 7.4 mph 36 % 0.0 in
18:50 27.2 °F 10.8 °F 1017.8 in SW 9.3 mph 9.3 mph 36 % 0.0 in
18:55 26.8 °F 10.9 °F 1017.8 in SW 11.1 mph 11.1 mph 37 % 0.0 in
19:00 26.7 °F 11.2 °F 1017.8 in South 7.4 mph 7.4 mph 38 % 0.0 in
19:05 27.0 °F 11.1 °F 1017.8 in South 7.4 mph 7.4 mph 37 % 0.0 in
19:10 27.0 °F 11.1 °F 1017.8 in West 7.4 mph 7.4 mph 37 % 0.0 in
19:15 26.9 °F 11.4 °F 1017.8 in SW 5.6 mph 5.8 mph 38 % 0.0 in
19:20 26.8 °F 11.7 °F 1017.8 in SSW 3.9 mph 3.9 mph 39 % 0.0 in
19:25 26.5 °F 11.4 °F 1017.8 in SW 9.3 mph 9.3 mph 39 % 0.0 in
19:30 26.4 °F 11.3 °F 1017.8 in SW 5.6 mph 5.6 mph 39 % 0.0 in
19:35 26.2 °F 11.2 °F 1017.8 in South 7.4 mph 7.4 mph 39 % 0.0 in
19:40 25.9 °F 10.9 °F 1017.8 in WSW 9.3 mph 9.3 mph 39 % 0.0 in
19:45 25.6 °F 10.6 °F 1018.8 in SW 9.3 mph 9.3 mph 39 % 0.0 in
19:50 25.5 °F 10.9 °F 1018.8 in SSW 14.8 mph 14.8 mph 40 % 0.0 in
19:55 25.2 °F 10.6 °F 1018.8 in SW 13.0 mph 13.0 mph 40 % 0.0 in
20:00 25.0 °F 10.8 °F 1017.8 in SW 7.4 mph 7.4 mph 41 % 0.0 in
20:05 24.8 °F 11.0 °F 1017.8 in SW 9.3 mph 9.3 mph 42 % 0.0 in
20:10 24.6 °F 10.8 °F 1017.8 in SW 9.3 mph 9.3 mph 42 % 0.0 in
20:15 24.3 °F 10.9 °F 1017.8 in WSW 13.0 mph 13.0 mph 43 % 0.0 in
20:20 24.1 °F 10.7 °F 1017.8 in SSW 9.3 mph 9.3 mph 43 % 0.0 in
20:25 24.0 °F 11.0 °F 1017.8 in SSW 13.0 mph 13.0 mph 44 % 0.0 in
20:30 23.8 °F 11.2 °F 1017.8 in SW 7.4 mph 7.4 mph 45 % 0.0 in
20:35 23.7 °F 11.1 °F 1017.8 in SW 5.6 mph 5.8 mph 45 % 0.0 in
20:40 23.5 °F 10.9 °F 1017.8 in NW 9.3 mph 9.3 mph 45 % 0.0 in
20:45 23.3 °F 11.0 °F 1017.8 in SW 9.3 mph 9.3 mph 46 % 0.0 in
20:50 23.2 °F 10.9 °F 1017.8 in West 9.3 mph 9.3 mph 46 % 0.0 in
20:55 23.0 °F 11.1 °F 1017.8 in SSW 7.4 mph 7.4 mph 47 % 0.0 in
21:00 22.9 °F 11.3 °F 1018.8 in South 11.1 mph 11.1 mph 48 % 0.0 in
21:05 22.7 °F 11.1 °F 1018.8 in SW 9.3 mph 9.3 mph 48 % 0.0 in
21:10 22.6 °F 11.1 °F 1018.8 in SW 7.4 mph 7.4 mph 48 % 0.0 in
21:11 22.6 °F 11.1 °F 1018.8 in WSW 6.1 mph 6.1 mph 48 % 0.0 in
21:15 18.6 °F 11.9 °F 1019.9 in WSW 1.6 mph 4.8 mph 65 % 0.0 in
21:16 22.5 °F 11.2 °F 1018.8 in SSW 9.3 mph 9.3 mph 49 % 0.0 in
21:21 22.4 °F 11.2 °F 1018.8 in SSW 7.4 mph 7.4 mph 49 % 0.0 in
21:25 18.5 °F 12.3 °F 1019.9 in Calm   3.2 mph 67 % 0.0 in
21:26 22.3 °F 11.4 °F 1018.8 in South 7.4 mph 7.4 mph 50 % 0.0 in
21:31 22.2 °F 11.3 °F 1018.8 in SW 5.6 mph 5.6 mph 50 % 0.0 in
21:35 18.4 °F 12.2 °F 1018.8 in Calm     67 % 0.0 in
21:36 22.1 °F 11.5 °F 1018.8 in SW 7.4 mph 7.4 mph 51 % 0.0 in
21:41 22.0 °F 11.4 °F 1018.8 in SW 6.9 mph 6.9 mph 51 % 0.0 in
21:45 18.5 °F 12.5 °F 1018.8 in SE 1.6 mph 3.2 mph 68 % 0.0 in
21:46 21.9 °F 11.3 °F 1018.8 in SW 9.3 mph 9.3 mph 51 % 0.0 in
21:51 21.9 °F 11.6 °F 1018.8 in WSW 7.4 mph 7.4 mph 52 % 0.0 in
21:55 18.6 °F 12.6 °F 1018.8 in NE 1.6 mph 1.6 mph 68 % 0.0 in
21:56 21.8 °F 11.5 °F 1018.8 in SSW 5.6 mph 5.6 mph 52 % 0.0 in
22:01 21.7 °F 11.7 °F 1019.9 in SW 7.6 mph 7.6 mph 53 % 0.0 in
22:05 18.5 °F 12.5 °F 1018.8 in NNE 1.6 mph 1.6 mph 68 % 0.0 in
22:06 21.7 °F 11.7 °F 1019.9 in WSW 9.3 mph 9.3 mph 53 % 0.0 in
22:11 21.5 °F 11.8 °F 1019.9 in WSW 7.4 mph 7.4 mph 54 % 0.0 in
22:15 18.3 °F 12.3 °F 1018.8 in Calm   3.2 mph 68 % 0.0 in
22:16 21.5 °F 11.8 °F 1019.9 in SW 3.7 mph 3.9 mph 54 % 0.0 in
22:21 21.4 °F 11.7 °F 1019.9 in WSW 9.3 mph 9.3 mph 54 % 0.0 in
22:25 17.9 °F 11.7 °F 1018.8 in WSW 3.2 mph 3.2 mph 67 % 0.0 in
22:26 21.3 °F 11.9 °F 1019.9 in SW 3.9 mph 3.9 mph 55 % 0.0 in
22:31 21.3 °F 11.9 °F 1019.9 in SSW 5.6 mph 5.6 mph 55 % 0.0 in
22:35 17.9 °F 11.9 °F 1018.8 in Calm     68 % 0.0 in
22:36 21.2 °F 11.8 °F 1019.9 in West 3.7 mph 3.9 mph 55 % 0.0 in
22:41 21.2 °F 12.1 °F 1019.9 in WSW 3.9 mph 3.9 mph 56 % 0.0 in
22:45 17.9 °F 11.9 °F 1018.8 in Calm     68 % 0.0 in
22:46 21.1 °F 12.0 °F 1019.9 in WSW 3.7 mph 3.7 mph 56 % 0.0 in
22:51 21.1 °F 12.0 °F 1019.9 in WSW 3.7 mph 3.7 mph 56 % 0.0 in
22:55 18.1 °F 12.1 °F 1018.8 in WSW 1.6 mph 3.2 mph 68 % 0.0 in
22:56 21.0 °F 12.2 °F 1019.9 in SW 3.7 mph 3.7 mph 57 % 0.0 in
23:01 21.0 °F 12.2 °F 1019.9 in SW 3.7 mph 3.7 mph 57 % 0.0 in
23:05 18.1 °F 12.1 °F 1018.8 in Calm   1.6 mph 68 % 0.0 in
23:06 21.0 °F 12.2 °F 1019.9 in Calm     57 % 0.0 in
23:11 20.9 °F 12.1 °F 1019.9 in West 3.7 mph 3.7 mph 57 % 0.0 in
23:15 18.1 °F 12.3 °F 1018.8 in Calm     69 % 0.0 in
23:16 20.8 °F 12.2 °F 1019.9 in Calm     58 % 0.0 in
23:21 20.8 °F 12.2 °F 1019.9 in SW 1.9 mph 1.9 mph 58 % 0.0 in
23:25 18.0 °F 12.2 °F 1018.8 in Calm     69 % 0.0 in
23:26 20.8 °F 12.2 °F 1019.9 in Calm     58 % 0.0 in
23:31 20.7 °F 12.1 °F 1019.9 in NNE 2.6 mph 2.6 mph 58 % 0.0 in
23:35 17.9 °F 12.1 °F 1017.8 in Calm     69 % 0.0 in
23:36 20.6 °F 12.3 °F 1019.9 in NNE 1.9 mph   59 % 0.0 in
23:41 20.6 °F 12.3 °F 1019.9 in Calm     59 % 0.0 in
23:45 17.3 °F 11.3 °F 1017.8 in Calm   3.2 mph 68 % 0.0 in
23:46 20.5 °F 11.9 °F 1019.9 in Calm     58 % 0.0 in
23:51 20.5 °F 12.2 °F 1019.9 in Calm     59 % 0.0 in
23:55 17.3 °F 11.6 °F 1018.8 in Calm     69 % 0.0 in
23:56 20.5 °F 12.2 °F 1019.9 in Calm     59 % 0.0 in
Meteo Sesrovires
Elogis d' Weather Underground - 3.75 mb

Guio original per  Jim McMurry - jmcmurry@mwt.net Adaptat per a la plantilla per  Wim van der Kuil - Leuven-Template.eu

Trobareu la nostra informacio del temps tambe a:

Weather Underground

AWEKAS